Time;durP1;ratioP1;P1;durP2;ratioP2;P2;SDS_P1;SDS_P2;PMS_P1;PMS_P2;Temp;Humidity;BMP_temperature;BMP_pressure;BME280_temperature;BME280_humidity;BME280_pressure;Samples;Min_cycle;Max_cycle;Signal;HPM_P1;HPM_P2
2023/08/11 00:00:32;;;;;;;1999.90;999.90;;;17.70;99.90;;;;;;5040582;28;20391;-76
2023/08/11 00:02:58;;;;;;;1999.90;999.90;;;17.70;99.90;;;;;;5057528;28;20040;-77
2023/08/11 00:05:24;;;;;;;1999.90;999.90;;;17.70;99.90;;;;;;5074857;28;20048;-76
2023/08/11 00:07:50;;;;;;;1999.90;999.90;;;17.70;99.90;;;;;;5057079;28;20048;-77
2023/08/11 00:10:20;;;;;;;1999.90;999.90;;;17.70;99.90;;;;;;5074747;28;20095;-76
2023/08/11 00:12:46;;;;;;;1999.90;999.90;;;17.70;99.90;;;;;;5074678;28;20048;-76
2023/08/11 00:15:12;;;;;;;1999.90;999.90;;;17.70;99.90;;;;;;5057649;28;20071;-76
2023/08/11 00:17:39;;;;;;;1999.90;999.90;;;17.70;99.90;;;;;;5056768;28;20442;-77
2023/08/11 00:20:06;;;;;;;1999.90;999.90;;;17.70;99.90;;;;;;5074508;28;20112;-78
2023/08/11 00:22:32;;;;;;;1999.90;999.90;;;17.70;99.90;;;;;;5074435;28;20472;-76
2023/08/11 00:24:58;;;;;;;1999.90;999.90;;;17.70;99.90;;;;;;5057666;28;20088;-76
2023/08/11 00:27:24;;;;;;;1999.90;999.90;;;17.70;99.90;;;;;;5073831;28;20098;-76
2023/08/11 00:29:50;;;;;;;1999.90;999.90;;;17.70;99.90;;;;;;5056752;28;20078;-77
2023/08/11 00:32:16;;;;;;;1999.90;999.90;;;17.70;99.90;;;;;;5074918;28;20045;-76
2023/08/11 00:34:41;;;;;;;1999.90;999.90;;;17.70;99.90;;;;;;5056500;28;20084;-77
2023/08/11 00:37:07;;;;;;;1999.90;999.90;;;17.70;99.90;;;;;;5074661;28;20080;-77
2023/08/11 00:39:33;;;;;;;1999.90;999.90;;;17.70;99.90;;;;;;5056501;28;20131;-77
2023/08/11 00:42:00;;;;;;;1999.90;999.90;;;17.70;99.90;;;;;;5074048;28;20048;-77
2023/08/11 00:44:26;;;;;;;1999.90;999.90;;;17.70;99.90;;;;;;5056096;28;20056;-77
2023/08/11 00:46:52;;;;;;;1999.90;999.90;;;17.70;99.90;;;;;;5056421;28;20048;-77
2023/08/11 00:49:18;;;;;;;1999.90;999.90;;;17.70;99.90;;;;;;5073617;28;20048;-77
2023/08/11 00:51:44;;;;;;;1999.90;999.90;;;17.70;99.90;;;;;;5073422;28;20033;-78
2023/08/11 00:54:11;;;;;;;1999.90;999.90;;;17.70;99.90;;;;;;5074481;28;20041;-77
2023/08/11 00:56:44;;;;;;;1999.90;999.90;;;17.70;99.90;;;;;;5073814;28;20048;-77
2023/08/11 00:59:14;;;;;;;1999.90;999.90;;;17.70;99.90;;;;;;5056573;28;20052;-78
2023/08/11 01:01:40;;;;;;;1999.90;999.90;;;17.70;99.90;;;;;;5055920;28;20044;-78
2023/08/11 01:04:07;;;;;;;1999.90;999.90;;;17.60;99.90;;;;;;5056017;28;20051;-78
2023/08/11 01:06:44;;;;;;;1999.90;999.90;;;17.60;99.90;;;;;;5073694;28;20480;-77
2023/08/11 01:09:27;;;;;;;1999.90;999.90;;;17.60;99.90;;;;;;5039468;28;20174;-77
2023/08/11 01:12:04;;;;;;;1999.90;999.90;;;17.50;99.90;;;;;;5073709;28;20057;-78
2023/08/11 01:14:38;;;;;;;1999.90;999.90;;;17.50;99.90;;;;;;5073722;28;20129;-77
2023/08/11 01:17:08;;;;;;;1999.90;999.90;;;17.50;99.90;;;;;;5073623;28;20044;-77
2023/08/11 01:19:36;;;;;;;1999.90;999.90;;;17.40;99.90;;;;;;5073601;28;20052;-77
2023/08/11 01:22:07;;;;;;;1999.90;999.90;;;17.30;99.90;;;;;;5073501;28;20040;-78
2023/08/11 01:24:33;;;;;;;1999.90;999.90;;;17.30;99.90;;;;;;5073646;28;20055;-77
2023/08/11 01:26:59;;;;;;;1999.90;999.90;;;17.20;99.90;;;;;;5073673;28;20048;-77
2023/08/11 01:29:26;;;;;;;1999.90;999.90;;;17.20;99.90;;;;;;5055790;28;20373;-78
2023/08/11 01:31:51;;;;;;;1999.90;999.90;;;17.10;99.90;;;;;;5073755;28;20040;-77
2023/08/11 01:34:17;;;;;;;1999.90;999.90;;;17.10;99.90;;;;;;5073987;28;20047;-78
2023/08/11 01:36:43;;;;;;;1999.90;999.90;;;17.10;99.90;;;;;;5056306;28;20032;-77
2023/08/11 01:39:13;;;;;;;1999.90;999.90;;;17.00;99.90;;;;;;5055284;28;20479;-78
2023/08/11 01:41:39;;;;;;;1999.90;999.90;;;17.00;99.90;;;;;;5055664;28;20045;-77
2023/08/11 01:44:08;;;;;;;1999.90;999.90;;;16.90;99.90;;;;;;5073456;28;20110;-77
2023/08/11 01:46:35;;;;;;;1999.90;999.90;;;16.90;99.90;;;;;;5073359;28;20052;-78
2023/08/11 01:49:01;;;;;;;1999.90;999.90;;;16.80;99.90;;;;;;5073358;28;20084;-78
2023/08/11 01:51:27;;;;;;;1999.90;999.90;;;16.80;99.90;;;;;;5073310;28;20049;-77
2023/08/11 01:53:53;;;;;;;1999.90;999.90;;;16.80;99.90;;;;;;5073306;28;20044;-77
2023/08/11 01:56:20;;;;;;;1999.90;999.90;;;16.70;99.90;;;;;;5055428;28;20049;-76
2023/08/11 01:58:47;;;;;;;1999.90;999.90;;;16.70;99.90;;;;;;5073192;28;20072;-78
2023/08/11 02:01:13;;;;;;;1999.90;999.90;;;16.60;99.90;;;;;;5075085;28;20383;-77
2023/08/11 02:03:40;;;;;;;1999.90;999.90;;;16.60;99.90;;;;;;5059961;28;20127;-78
2023/08/11 02:06:06;;;;;;;1999.90;999.90;;;16.60;99.90;;;;;;5077360;28;20427;-76
2023/08/11 02:08:32;;;;;;;1999.90;999.90;;;16.50;99.90;;;;;;5059676;28;20037;-77
2023/08/11 02:10:58;;;;;;;1999.90;999.90;;;16.50;99.90;;;;;;5077328;28;20063;-77
2023/08/11 02:13:24;;;;;;;1999.90;999.90;;;16.50;99.90;;;;;;5076948;28;20044;-77
2023/08/11 02:15:50;;;;;;;1999.90;999.90;;;16.50;99.90;;;;;;5060057;28;20098;-77
2023/08/11 02:18:15;;;;;;;1999.90;999.90;;;16.40;99.90;;;;;;5076796;28;20121;-78
2023/08/11 02:20:41;;;;;;;1999.90;999.90;;;16.40;99.90;;;;;;5059003;28;20396;-78
2023/08/11 02:23:08;;;;;;;1999.90;999.90;;;16.40;99.90;;;;;;5077246;28;20136;-78
2023/08/11 02:25:34;;;;;;;1999.90;999.90;;;16.30;99.90;;;;;;5076636;28;20045;-77
2023/08/11 02:28:00;;;;;;;1999.90;999.90;;;16.30;99.90;;;;;;5076599;28;20059;-77
2023/08/11 02:30:29;;;;;;;1999.90;999.90;;;16.30;99.90;;;;;;5058661;28;20481;-77
2023/08/11 02:32:55;;;;;;;1999.90;999.90;;;16.30;99.90;;;;;;5076524;28;20037;-77
2023/08/11 02:35:22;;;;;;;1999.90;999.90;;;16.20;99.90;;;;;;5059438;28;20051;-77
2023/08/11 02:37:48;;;;;;;1999.90;999.90;;;16.20;99.90;;;;;;5058713;28;20053;-77
2023/08/11 02:40:14;;;;;;;1999.90;999.90;;;16.20;99.90;;;;;;5058368;28;20579;-78
2023/08/11 02:42:48;;;;;;;1999.90;999.90;;;16.20;99.90;;;;;;5058796;28;20182;-78
2023/08/11 02:45:15;;;;;;;1999.90;999.90;;;16.20;99.90;;;;;;5076376;28;20048;-77
2023/08/11 02:47:41;;;;;;;1999.90;999.90;;;16.10;99.90;;;;;;5076277;28;20080;-76
2023/08/11 02:50:08;;;;;;;1999.90;999.90;;;16.10;99.90;;;;;;5076202;28;20040;-80
2023/08/11 02:52:34;;;;;;;1999.90;999.90;;;16.10;99.90;;;;;;5076701;28;20056;-76
2023/08/11 02:55:01;;;;;;;1999.90;999.90;;;16.10;99.90;;;;;;5058432;28;20048;-78
2023/08/11 02:57:27;;;;;;;1999.90;999.90;;;16.00;99.90;;;;;;5076149;28;20075;-79
2023/08/11 02:59:53;;;;;;;1999.90;999.90;;;16.00;99.90;;;;;;5058319;28;20044;-79
2023/08/11 03:02:19;;;;;;;1999.90;999.90;;;16.00;99.90;;;;;;5058374;28;20373;-79
2023/08/11 03:04:46;;;;;;;1999.90;999.90;;;16.00;99.90;;;;;;5075981;28;20070;-78
2023/08/11 03:07:12;;;;;;;1999.90;999.90;;;15.90;99.90;;;;;;5075824;28;20052;-78
2023/08/11 03:09:39;;;;;;;1999.90;999.90;;;15.90;99.90;;;;;;5025303;28;20080;-79
2023/08/11 03:12:07;;;;;;;1999.90;999.90;;;15.90;99.90;;;;;;5058133;28;20075;-78
2023/08/11 03:14:34;;;;;;;1999.90;999.90;;;15.90;99.90;;;;;;5058000;28;20131;-78
2023/08/11 03:17:00;;;;;;;1999.90;999.90;;;15.90;99.90;;;;;;5075817;28;20131;-77
2023/08/11 03:19:26;;;;;;;1999.90;999.90;;;15.80;99.90;;;;;;5075661;28;20127;-78
2023/08/11 03:21:51;;;;;;;1999.90;999.90;;;15.80;99.90;;;;;;5075850;28;20041;-78
2023/08/11 03:24:17;;;;;;;1999.90;999.90;;;15.80;99.90;;;;;;5075596;28;20044;-78
2023/08/11 03:26:44;;;;;;;1999.90;999.90;;;15.80;99.90;;;;;;5057606;28;20044;-77
2023/08/11 03:29:10;;;;;;;1999.90;999.90;;;15.80;99.90;;;;;;5057848;28;20048;-78
2023/08/11 03:31:35;;;;;;;1999.90;999.90;;;15.70;99.90;;;;;;5041966;28;20135;-78
2023/08/11 03:34:01;;;;;;;1999.90;999.90;;;15.80;99.90;;;;;;5075954;28;20062;-77
2023/08/11 03:36:27;;;;;;;1999.90;999.90;;;15.70;99.90;;;;;;5075270;28;20084;-77
2023/08/11 03:38:52;;;;;;;1999.90;999.90;;;15.70;99.90;;;;;;5041151;28;20045;-77
2023/08/11 03:41:18;;;;;;;1999.90;999.90;;;15.70;99.90;;;;;;5057321;28;20051;-77
2023/08/11 03:43:44;;;;;;;1999.90;999.90;;;15.70;99.90;;;;;;5075518;28;20059;-77
2023/08/11 03:46:10;;;;;;;1999.90;999.90;;;15.70;99.90;;;;;;5075228;28;20049;-77
2023/08/11 03:48:35;;;;;;;1999.90;999.90;;;15.70;99.90;;;;;;5075635;28;20040;-78
2023/08/11 03:51:01;;;;;;;1999.90;999.90;;;15.70;99.90;;;;;;5074753;28;20041;-77
2023/08/11 03:53:27;;;;;;;1999.90;999.90;;;15.70;99.90;;;;;;5075581;28;20080;-77
2023/08/11 03:55:53;;;;;;;1999.90;999.90;;;15.70;99.90;;;;;;5074984;28;20071;-78
2023/08/11 03:58:21;;;;;;;1999.90;999.90;;;15.70;99.90;;;;;;5057366;28;20044;-78
2023/08/11 04:00:47;;;;;;;1999.90;999.90;;;15.70;99.90;;;;;;5057833;28;20067;-78
2023/08/11 04:03:14;;;;;;;1999.90;999.90;;;15.70;99.90;;;;;;5074857;28;20045;-77
2023/08/11 04:05:41;;;;;;;1999.90;999.90;;;15.70;99.90;;;;;;5074832;28;20055;-77
2023/08/11 04:08:07;;;;;;;1999.90;999.90;;;15.70;99.90;;;;;;5057254;28;20515;-77
2023/08/11 04:10:36;;;;;;;1999.90;999.90;;;15.70;99.90;;;;;;5074660;28;20092;-77
2023/08/11 04:13:03;;;;;;;1999.90;999.90;;;15.70;99.90;;;;;;5074715;28;20044;-78
2023/08/11 04:15:31;;;;;;;1999.90;999.90;;;15.70;99.90;;;;;;5074566;28;20048;-78
2023/08/11 04:17:56;;;;;;;1999.90;999.90;;;15.80;99.90;;;;;;5074582;28;20056;-77
2023/08/11 04:20:22;;;;;;;1999.90;999.90;;;15.80;99.90;;;;;;5074423;28;20040;-78
2023/08/11 04:22:48;;;;;;;1999.90;999.90;;;15.70;99.90;;;;;;5039991;28;20055;-77
2023/08/11 04:25:14;;;;;;;1999.90;999.90;;;15.70;99.90;;;;;;5057428;28;20048;-77
2023/08/11 04:27:40;;;;;;;1999.90;999.90;;;15.80;99.90;;;;;;5074561;28;20061;-77
2023/08/11 04:30:07;;;;;;;1999.90;999.90;;;15.70;99.90;;;;;;5074301;28;20143;-77
2023/08/11 04:32:33;;;;;;;1999.90;999.90;;;15.70;99.90;;;;;;5056448;28;20053;-77
2023/08/11 04:34:59;;;;;;;1999.90;999.90;;;15.70;99.90;;;;;;5039626;28;20056;-77
2023/08/11 04:37:25;;;;;;;1999.90;999.90;;;15.70;99.90;;;;;;5074186;28;20097;-77
2023/08/11 04:39:51;;;;;;;1999.90;999.90;;;15.70;99.90;;;;;;5074154;28;20048;-77
2023/08/11 04:42:17;;;;;;;1999.90;999.90;;;15.70;99.90;;;;;;5074193;28;20052;-78
2023/08/11 04:44:42;;;;;;;1999.90;999.90;;;15.70;99.90;;;;;;5073965;28;20174;-77
2023/08/11 04:47:08;;;;;;;1999.90;999.90;;;15.70;99.90;;;;;;5074064;28;20049;-77
2023/08/11 04:49:35;;;;;;;1999.90;999.90;;;15.70;99.90;;;;;;5074011;28;20132;-77
2023/08/11 04:52:01;;;;;;;1999.90;999.90;;;15.70;99.90;;;;;;5074553;28;20142;-77
2023/08/11 04:54:27;;;;;;;1999.90;999.90;;;15.70;99.90;;;;;;5056273;28;20130;-78
2023/08/11 04:56:53;;;;;;;1999.90;999.90;;;15.70;99.90;;;;;;5057108;28;20071;-78
2023/08/11 04:59:19;;;;;;;1999.90;999.90;;;15.70;99.90;;;;;;5056427;28;20475;-77
2023/08/11 05:01:44;;;;;;;1999.90;999.90;;;15.80;99.90;;;;;;5074268;28;20044;-77
2023/08/11 05:04:10;;;;;;;1999.90;999.90;;;15.80;99.90;;;;;;5073845;28;20052;-78
2023/08/11 05:06:36;;;;;;;1999.90;999.90;;;15.80;99.90;;;;;;5074046;28;20036;-77
2023/08/11 05:09:05;;;;;;;1999.90;999.90;;;15.80;99.90;;;;;;5056133;28;20494;-78
2023/08/11 05:11:30;;;;;;;1999.90;999.90;;;15.80;99.90;;;;;;5056081;28;20056;-78
2023/08/11 05:13:56;;;;;;;1999.90;999.90;;;15.80;99.90;;;;;;5073937;28;20060;-77
2023/08/11 05:16:23;;;;;;;1999.90;999.90;;;15.80;99.90;;;;;;5055981;28;20480;-77
2023/08/11 05:18:49;;;;;;;1999.90;999.90;;;15.90;99.90;;;;;;5055956;28;20048;-77
2023/08/11 05:21:15;;;;;;;1999.90;999.90;;;15.90;99.90;;;;;;5055760;28;20093;-77
2023/08/11 05:23:41;;;;;;;1999.90;999.90;;;15.90;99.90;;;;;;5039638;28;20090;-78
2023/08/11 05:26:06;;;;;;;1999.90;999.90;;;15.90;99.90;;;;;;5073511;28;20091;-77
2023/08/11 05:28:32;;;;;;;1999.90;999.90;;;16.00;99.90;;;;;;5053220;28;20067;-76
2023/08/11 05:30:58;;;;;;;1999.90;999.90;;;16.00;99.90;;;;;;5073554;28;20474;-76
2023/08/11 05:33:27;;;;;;;1999.90;999.90;;;16.00;99.90;;;;;;5073433;28;20361;-77
2023/08/11 05:35:52;;;;;;;1999.90;999.90;;;16.00;99.90;;;;;;5055243;28;20377;-77
2023/08/11 05:38:25;;;;;;;1999.90;999.90;;;16.10;99.90;;;;;;5073559;28;20051;-78
2023/08/11 05:40:50;;;;;;;1999.90;999.90;;;16.10;99.90;;;;;;5073985;28;20044;-77
2023/08/11 05:43:16;;;;;;;1999.90;999.90;;;16.10;99.90;;;;;;5074176;28;20096;-77
2023/08/11 05:45:42;;;;;;;1999.90;999.90;;;16.10;99.90;;;;;;5055913;28;20040;-77
2023/08/11 05:48:07;;;;;;;1999.90;999.90;;;16.10;99.90;;;;;;5055124;28;20044;-77
2023/08/11 05:50:33;;;;;;;1999.90;999.90;;;16.20;99.90;;;;;;5055467;28;20043;-77
2023/08/11 05:52:59;;;;;;;1999.90;999.90;;;16.20;99.90;;;;;;5073272;28;20090;-76
2023/08/11 05:55:24;;;;;;;1999.90;999.90;;;16.20;99.90;;;;;;5055760;28;20051;-76
2023/08/11 05:57:50;;;;;;;1999.90;999.90;;;16.30;99.90;;;;;;5055475;28;20102;-76
2023/08/11 06:00:18;;;;;;;1999.90;999.90;;;16.30;99.90;;;;;;5073917;28;20047;-76
2023/08/11 06:02:44;;;;;;;1999.90;999.90;;;16.30;99.90;;;;;;5073158;28;20052;-76
2023/08/11 06:05:12;;;;;;;1999.90;999.90;;;16.40;99.90;;;;;;5073462;28;20087;-76
2023/08/11 06:07:39;;;;;;;1999.90;999.90;;;16.40;99.90;;;;;;5072720;28;20492;-76
2023/08/11 06:10:05;;;;;;;1999.90;999.90;;;16.50;99.90;;;;;;5055482;28;20063;-76
2023/08/11 06:12:31;;;;;;;1999.90;999.90;;;16.50;99.90;;;;;;5055441;28;20427;-76
2023/08/11 06:14:57;;;;;;;1999.90;999.90;;;16.50;99.90;;;;;;5073009;28;20049;-76
2023/08/11 06:17:23;;;;;;;1999.90;999.90;;;16.60;99.90;;;;;;5073028;28;20102;-76
2023/08/11 06:19:49;;;;;;;1999.90;999.90;;;16.60;99.90;;;;;;5073552;28;20468;-76
2023/08/11 06:22:14;;;;;;;1999.90;999.90;;;16.70;99.90;;;;;;5072614;28;20059;-76
2023/08/11 06:24:40;;;;;;;1999.90;999.90;;;16.70;99.90;;;;;;5074073;28;20056;-76
2023/08/11 06:27:06;;;;;;;1999.90;999.90;;;16.80;99.90;;;;;;5055221;28;20108;-76
2023/08/11 06:29:32;;;;;;;1999.90;999.90;;;16.80;99.90;;;;;;5056190;28;20147;-77
2023/08/11 06:31:58;;;;;;;1999.90;999.90;;;16.90;99.90;;;;;;5073005;28;20465;-76
2023/08/11 06:34:23;;;;;;;1999.90;999.90;;;16.90;99.90;;;;;;5055359;28;20044;-77
2023/08/11 06:36:49;;;;;;;1999.90;999.90;;;16.90;99.90;;;;;;5072766;28;20041;-76
2023/08/11 06:39:16;;;;;;;1999.90;999.90;;;17.00;99.90;;;;;;5072795;28;20071;-76
2023/08/11 06:41:41;;;;;;;1999.90;999.90;;;17.00;99.90;;;;;;5055195;28;20063;-76
2023/08/11 06:44:07;;;;;;;1999.90;999.90;;;17.10;99.90;;;;;;5072791;28;20045;-76
2023/08/11 06:46:34;;;;;;;1999.90;999.90;;;17.10;99.90;;;;;;5073311;28;20051;-76
2023/08/11 06:48:59;;;;;;;1999.90;999.90;;;17.20;99.90;;;;;;5074435;28;20090;-76
2023/08/11 06:51:25;;;;;;;1999.90;999.90;;;17.20;99.90;;;;;;5058530;28;20040;-76
2023/08/11 06:53:51;;;;;;;1999.90;999.90;;;17.30;99.90;;;;;;5076198;28;20052;-76
2023/08/11 06:56:17;;;;;;;1999.90;999.90;;;17.30;99.90;;;;;;5059414;28;20464;-76
2023/08/11 06:58:42;;;;;;;1999.90;999.90;;;17.40;99.90;;;;;;5076556;28;20123;-76
2023/08/11 07:01:08;;;;;;;1999.90;999.90;;;17.40;99.90;;;;;;5058972;28;20048;-76
2023/08/11 07:03:34;;;;;;;1999.90;999.90;;;17.50;99.90;;;;;;5076067;28;20480;-76
2023/08/11 07:06:03;;;;;;;1999.90;999.90;;;17.50;99.90;;;;;;5059191;28;20048;-76
2023/08/11 07:08:29;;;;;;;1999.90;999.90;;;17.60;99.90;;;;;;5058086;28;20045;-76
2023/08/11 07:10:55;;;;;;;1999.90;999.90;;;17.60;99.90;;;;;;5058477;28;20048;-76
2023/08/11 07:13:21;;;;;;;1999.90;999.90;;;17.70;99.90;;;;;;5059066;28;20052;-83
2023/08/11 07:15:46;;;;;;;1999.90;999.90;;;17.70;99.90;;;;;;5058146;28;20052;-83
2023/08/11 07:18:13;;;;;;;1999.90;999.90;;;17.80;99.90;;;;;;5058272;28;20131;-82
2023/08/11 07:20:42;;;;;;;1999.90;999.90;;;17.90;99.90;;;;;;5058348;28;20445;-83
2023/08/11 07:23:08;;;;;;;1999.90;999.90;;;17.90;99.90;;;;;;5076952;28;20432;-82
2023/08/11 07:25:34;;;;;;;1999.90;999.90;;;18.00;99.90;;;;;;5075796;28;20124;-82
2023/08/11 07:27:59;;;;;;;1999.90;999.90;;;18.10;99.90;;;;;;5075643;28;20399;-82
2023/08/11 07:30:26;;;;;;;1999.90;999.90;;;18.10;99.90;;;;;;5057985;28;20056;-81
2023/08/11 07:32:51;;;;;;;1999.90;999.90;;;18.20;99.90;;;;;;5076205;28;20040;-81
2023/08/11 07:35:17;;;;;;;1999.90;999.90;;;18.20;99.90;;;;;;5058332;28;20126;-81
2023/08/11 07:37:43;;;;;;;1999.90;999.90;;;18.30;99.90;;;;;;5075431;28;20037;-82
2023/08/11 07:40:09;;;;;;;1999.90;999.90;;;18.40;99.90;;;;;;5075479;28;20048;-81
2023/08/11 07:42:35;;;;;;;1999.90;999.90;;;18.50;99.90;;;;;;5057549;28;20052;-81
2023/08/11 07:45:00;;;;;;;1999.90;999.90;;;18.50;99.90;;;;;;5041054;28;20041;-81
2023/08/11 07:47:26;;;;;;;1999.90;999.90;;;18.50;99.90;;;;;;5075429;28;20059;-80
2023/08/11 07:49:52;;;;;;;1999.90;999.90;;;18.60;99.90;;;;;;5040313;28;20053;-82
2023/08/11 07:52:18;;;;;;;1999.90;999.90;;;18.70;99.90;;;;;;5040271;28;20174;-85
2023/08/11 07:54:44;;;;;;;1999.90;999.90;;;18.70;99.90;;;;;;5075071;28;20063;-84
2023/08/11 07:57:10;;;;;;;1999.90;999.90;;;18.80;99.90;;;;;;5056795;28;20502;-81
2023/08/11 07:59:36;;;;;;;1999.90;999.90;;;18.90;99.90;;;;;;5074238;28;20044;-80
2023/08/11 08:02:03;;;;;;;1999.90;999.90;;;19.00;99.90;;;;;;5074799;28;20046;-80
2023/08/11 08:04:29;;;;;;;1999.90;999.90;;;19.10;99.90;;;;;;5075090;28;20049;-79
2023/08/11 08:06:55;;;;;;;1999.90;999.90;;;19.20;99.90;;;;;;5074776;28;20491;-80
2023/08/11 08:09:21;;;;;;;1999.90;999.90;;;19.20;99.90;;;;;;5074700;28;20047;-78
2023/08/11 08:11:48;;;;;;;1999.90;999.90;;;19.30;99.90;;;;;;5075228;28;20041;-79
2023/08/11 08:14:15;;;;;;;1999.90;999.90;;;18.90;99.90;;;;;;5074309;28;20048;-78
2023/08/11 08:16:47;;;;;;;1999.90;999.90;;;19.40;99.90;;;;;;5057395;28;20052;-78
2023/08/11 08:19:17;;;;;;;1999.90;999.90;;;19.50;99.90;;;;;;5074378;28;20119;-78
2023/08/11 08:21:42;;;;;;;1999.90;999.90;;;19.50;99.90;;;;;;5057064;28;20051;-77
2023/08/11 08:24:08;;;;;;;1999.90;999.90;;;19.50;99.90;;;;;;5057283;28;20439;-79
2023/08/11 08:26:37;;;;;;;1999.90;999.90;;;19.60;99.90;;;;;;5056610;28;20048;-79
2023/08/11 08:29:03;;;;;;;1999.90;999.90;;;19.70;99.90;;;;;;5075223;28;20061;-79
2023/08/11 08:31:29;;;;;;;1999.90;999.90;;;19.80;99.90;;;;;;5074125;28;20040;-80
2023/08/11 08:33:55;;;;;;;1999.90;999.90;;;19.80;99.90;;;;;;5040524;28;20067;-79
2023/08/11 08:36:21;;;;;;;1999.90;999.90;;;19.90;99.90;;;;;;5073923;28;20471;-81
2023/08/11 08:38:46;;;;;;;1999.90;999.90;;;20.00;99.90;;;;;;5040519;28;20464;-79
2023/08/11 08:41:18;;;;;;;1999.90;999.90;;;20.10;99.90;;;;;;5056625;28;20047;-79
2023/08/11 08:43:44;;;;;;;1999.90;999.90;;;20.10;99.90;;;;;;5056357;28;20041;-79
2023/08/11 08:46:13;;;;;;;1999.90;999.90;;;20.20;99.90;;;;;;5074025;28;20132;-79
2023/08/11 08:48:57;;;;;;;1999.90;999.90;;;20.20;99.90;;;;;;5073689;28;20041;-78
2023/08/11 08:51:23;;;;;;;1999.90;999.90;;;20.30;99.90;;;;;;5055575;28;20048;-79
2023/08/11 08:53:48;;;;;;;1999.90;999.90;;;20.40;99.90;;;;;;5073506;28;20040;-79
2023/08/11 08:56:15;;;;;;;1999.90;999.90;;;20.40;99.90;;;;;;5056540;28;20373;-78
2023/08/11 08:58:41;;;;;;;1999.90;999.90;;;20.50;99.90;;;;;;5074214;28;20048;-79
2023/08/11 09:01:09;;;;;;;1999.90;999.90;;;20.50;99.90;;;;;;5056048;28;20071;-79
2023/08/11 09:03:36;;;;;;;1999.90;999.90;;;20.60;99.90;;;;;;5073622;28;20047;-79
2023/08/11 09:06:05;;;;;;;1999.90;999.90;;;20.60;99.90;;;;;;5055904;28;20131;-79
2023/08/11 09:08:39;;;;;;;1999.90;999.90;;;20.70;99.90;;;;;;5055748;28;20044;-80
2023/08/11 09:11:05;;;;;;;1999.90;999.90;;;20.70;99.90;;;;;;5073081;28;20040;-77
2023/08/11 09:13:33;;;;;;;1999.90;999.90;;;20.70;99.90;;;;;;5073406;28;20491;-80
2023/08/11 09:16:00;;;;;;;1999.90;999.90;;;20.80;99.90;;;;;;5073871;28;20076;-80
2023/08/11 09:18:27;;;;;;;1999.90;999.90;;;20.90;99.90;;;;;;5039361;28;20511;-80
2023/08/11 09:20:53;;;;;;;1999.90;999.90;;;20.90;99.90;;;;;;5038874;28;20049;-81
2023/08/11 09:23:19;;;;;;;1999.90;999.90;;;21.00;99.90;;;;;;5073504;28;20443;-78
2023/08/11 09:25:49;;;;;;;1999.90;999.90;;;21.00;99.90;;;;;;5073228;28;20365;-79
2023/08/11 09:28:15;;;;;;;1999.90;999.90;;;21.10;99.90;;;;;;5055534;28;20412;-80
2023/08/11 09:30:41;;;;;;;1999.90;999.90;;;21.10;99.90;;;;;;5073127;28;20049;-80
2023/08/11 09:33:07;;;;;;;1999.90;999.90;;;21.20;99.90;;;;;;5073869;28;20147;-80
2023/08/11 09:35:34;;;;;;;1999.90;999.90;;;21.30;99.90;;;;;;5055717;28;20051;-82
2023/08/11 09:38:00;;;;;;;1999.90;999.90;;;21.30;99.90;;;;;;5073378;28;20483;-81
2023/08/11 09:40:26;;;;;;;1999.90;999.90;;;21.40;99.90;;;;;;5073630;28;20171;-80
2023/08/11 09:42:56;;;;;;;1999.90;999.90;;;21.50;99.90;;;;;;5073437;28;20373;-81
2023/08/11 09:45:23;;;;;;;1999.90;999.90;;;21.50;99.90;;;;;;5039393;28;20127;-80
2023/08/11 09:47:49;;;;;;;1999.90;999.90;;;21.60;99.90;;;;;;5073500;28;20045;-81
2023/08/11 09:50:15;;;;;;;1999.90;999.90;;;21.60;99.90;;;;;;5073934;28;20094;-81
2023/08/11 09:52:43;;;;;;;1999.90;999.90;;;21.70;99.90;;;;;;5073318;28;20055;-81
2023/08/11 09:55:13;;;;;;;1999.90;999.90;;;21.70;99.90;;;;;;5073309;28;20110;-81
2023/08/11 09:57:43;;;;;;;1999.90;999.90;;;21.80;99.90;;;;;;5073886;28;20098;-80
2023/08/11 10:00:13;;;;;;;1999.90;999.90;;;21.80;99.90;;;;;;5055935;28;20048;-80
2023/08/11 10:03:09;;;;;;;1999.90;999.90;;;21.80;99.90;;;;;;5074170;28;20044;-80
2023/08/11 10:05:41;;;;;;;1999.90;999.90;;;21.90;99.90;;;;;;5073991;28;20045;-78
2023/08/11 10:08:11;;;;;;;1999.90;999.90;;;22.00;99.90;;;;;;5073255;28;20048;-80
2023/08/11 10:10:38;;;;;;;1999.90;999.90;;;22.00;99.90;;;;;;5055232;28;20147;-81
2023/08/11 10:13:32;;;;;;;1999.90;999.90;;;22.10;99.90;;;;;;5073301;28;20392;-81
2023/08/11 10:15:59;;;;;;;1999.90;999.90;;;22.10;99.90;;;;;;5051694;28;20500;-81
2023/08/11 10:18:25;;;;;;;1999.90;999.90;;;22.20;99.90;;;;;;5055104;28;20489;-82
2023/08/11 10:20:51;;;;;;;1999.90;999.90;;;22.30;99.90;;;;;;5055330;28;20127;-82
2023/08/11 10:23:20;;;;;;;1999.90;999.90;;;22.30;99.90;;;;;;5057716;28;20094;-78
2023/08/11 10:25:47;;;;;;;1999.90;999.90;;;22.40;99.90;;;;;;5059317;28;20044;-79
2023/08/11 10:28:14;;;;;;;1999.90;999.90;;;22.40;99.90;;;;;;5059331;28;20052;-79
2023/08/11 10:30:40;;;;;;;1999.90;999.90;;;22.40;99.90;;;;;;5042418;28;20049;-79
2023/08/11 10:33:08;;;;;;;1999.90;999.90;;;22.50;99.90;;;;;;5059932;28;20093;-79
2023/08/11 10:35:49;;;;;;;1999.90;999.90;;;22.50;99.90;;;;;;5059054;28;20036;-79
2023/08/11 10:38:26;;;;;;;1999.90;999.90;;;22.60;99.90;;;;;;5059882;28;20052;-80
2023/08/11 10:41:00;;;;;;;1999.90;999.90;;;22.70;99.90;;;;;;5058957;28;20484;-79
2023/08/11 10:43:42;;;;;;;1999.90;999.90;;;22.70;99.90;;;;;;5076698;28;20052;-80
2023/08/11 10:46:23;;;;;;;1999.90;999.90;;;22.80;99.90;;;;;;5077378;28;20080;-80
2023/08/11 10:48:54;;;;;;;1999.90;999.90;;;22.80;99.90;;;;;;5059106;28;20128;-79
2023/08/11 10:51:34;;;;;;;1999.90;999.90;;;22.80;99.90;;;;;;5059651;28;20055;-79
2023/08/11 10:54:10;;;;;;;1999.90;999.90;;;22.90;99.90;;;;;;5076714;28;20479;-80
2023/08/11 10:56:36;;;;;;;1999.90;999.90;;;23.00;99.90;;;;;;5077094;28;20109;-79
2023/08/11 10:59:11;;;;;;;1999.90;999.90;;;23.00;99.90;;;;;;5076469;28;20084;-80
2023/08/11 11:01:38;;;;;;;1999.90;999.90;;;23.10;99.90;;;;;;5041950;28;20458;-79
2023/08/11 11:04:06;;;;;;;1999.90;999.90;;;23.10;99.90;;;;;;5059150;28;20045;-79
2023/08/11 11:06:32;;;;;;;1999.90;999.90;;;23.20;99.90;;;;;;5076304;28;20048;-80
2023/08/11 11:08:58;;;;;;;1999.90;999.90;;;23.20;99.90;;;;;;5058083;28;20542;-79
2023/08/11 11:11:24;;;;;;;1999.90;999.90;;;23.20;99.90;;;;;;5058774;28;20052;-80
2023/08/11 11:13:51;;;;;;;1999.90;999.90;;;23.30;99.90;;;;;;5058529;28;20114;-81
2023/08/11 11:16:19;;;;;;;1999.90;999.90;;;23.40;99.90;;;;;;5076051;28;20053;-80
2023/08/11 11:18:47;;;;;;;1999.90;999.90;;;23.50;99.90;;;;;;5076010;28;20045;-80
2023/08/11 11:21:13;;;;;;;1999.90;999.90;;;23.50;99.90;;;;;;5058142;28;20052;-80
2023/08/11 11:23:47;;;;;;;1999.90;999.90;;;23.70;99.90;;;;;;5075760;28;20044;-81
2023/08/11 11:26:32;;;;;;;1999.90;999.90;;;23.60;99.90;;;;;;5075751;28;20052;-82
2023/08/11 11:28:59;;;;;;;1999.90;999.90;;;23.70;99.90;;;;;;5075848;28;20048;-80
2023/08/11 11:31:33;;;;;;;1999.90;999.90;;;23.80;99.90;;;;;;5041677;28;20045;-80
2023/08/11 11:33:58;;;;;;;1999.90;999.90;;;23.90;99.90;;;;;;5074834;28;20051;-80
2023/08/11 11:36:25;;;;;;;1999.90;999.90;;;24.00;99.90;;;;;;5076319;28;20044;-80
2023/08/11 11:38:51;;;;;;;1999.90;999.90;;;24.00;99.90;;;;;;5075476;28;20048;-78
2023/08/11 11:41:18;;;;;;;1999.90;999.90;;;24.00;99.90;;;;;;5076055;28;20057;-79
2023/08/11 11:43:45;;;;;;;1999.90;999.90;;;24.10;99.90;;;;;;5057829;28;20495;-81
2023/08/11 11:46:15;;;;;;;1999.90;999.90;;;24.00;99.90;;;;;;5057544;28;20051;-80
2023/08/11 11:48:46;;;;;;;1999.90;999.90;;;24.10;99.90;;;;;;5041280;28;20052;-80
2023/08/11 11:51:13;;;;;;;1999.90;999.90;;;24.20;99.90;;;;;;5075422;28;20173;-80
2023/08/11 11:53:39;;;;;;;1999.90;999.90;;;24.20;99.90;;;;;;5075317;28;20044;-80
2023/08/11 11:56:07;;;;;;;1999.90;999.90;;;24.30;99.90;;;;;;5057592;28;20153;-81
2023/08/11 11:58:33;;;;;;;1999.90;999.90;;;24.30;99.90;;;;;;5057506;28;20055;-79